sensor_id;sensor_type;location;lat;lon;timestamp;P1;durP1;ratioP1;P2;durP2;ratioP2
37791;SDS011;29527;55.766;37.570;2023-09-30T00:01:08;20.45;;;12.82;;
37791;SDS011;29527;55.766;37.570;2023-09-30T00:03:34;21.30;;;13.00;;
37791;SDS011;29527;55.766;37.570;2023-09-30T00:06:00;16.95;;;12.73;;
37791;SDS011;29527;55.766;37.570;2023-09-30T00:08:25;22.13;;;13.02;;
37791;SDS011;29527;55.766;37.570;2023-09-30T00:10:52;24.20;;;12.90;;
37791;SDS011;29527;55.766;37.570;2023-09-30T00:13:20;22.23;;;12.65;;
37791;SDS011;29527;55.766;37.570;2023-09-30T00:15:46;20.90;;;12.35;;
37791;SDS011;29527;55.766;37.570;2023-09-30T00:18:12;23.27;;;12.88;;
37791;SDS011;29527;55.766;37.570;2023-09-30T00:20:38;27.05;;;13.77;;
37791;SDS011;29527;55.766;37.570;2023-09-30T00:23:04;23.02;;;13.63;;
37791;SDS011;29527;55.766;37.570;2023-09-30T00:25:32;24.60;;;12.15;;
37791;SDS011;29527;55.766;37.570;2023-09-30T00:27:58;19.33;;;12.85;;
37791;SDS011;29527;55.766;37.570;2023-09-30T00:30:24;23.65;;;13.18;;
37791;SDS011;29527;55.766;37.570;2023-09-30T00:32:49;20.42;;;13.13;;
37791;SDS011;29527;55.766;37.570;2023-09-30T00:35:15;18.88;;;12.70;;
37791;SDS011;29527;55.766;37.570;2023-09-30T00:37:41;18.42;;;12.65;;
37791;SDS011;29527;55.766;37.570;2023-09-30T00:40:07;19.70;;;13.00;;
37791;SDS011;29527;55.766;37.570;2023-09-30T00:42:38;20.33;;;12.82;;
37791;SDS011;29527;55.766;37.570;2023-09-30T00:45:04;19.63;;;13.02;;
37791;SDS011;29527;55.766;37.570;2023-09-30T00:47:30;17.02;;;12.60;;
37791;SDS011;29527;55.766;37.570;2023-09-30T00:49:56;23.02;;;12.85;;
37791;SDS011;29527;55.766;37.570;2023-09-30T00:52:22;21.50;;;12.02;;
37791;SDS011;29527;55.766;37.570;2023-09-30T00:54:48;23.58;;;14.18;;
37791;SDS011;29527;55.766;37.570;2023-09-30T00:57:15;26.45;;;13.02;;
37791;SDS011;29527;55.766;37.570;2023-09-30T00:59:43;20.90;;;12.55;;
37791;SDS011;29527;55.766;37.570;2023-09-30T01:02:09;19.83;;;12.50;;
37791;SDS011;29527;55.766;37.570;2023-09-30T01:04:35;17.55;;;12.60;;
37791;SDS011;29527;55.766;37.570;2023-09-30T01:07:01;16.70;;;12.38;;
37791;SDS011;29527;55.766;37.570;2023-09-30T01:09:27;16.48;;;11.93;;
37791;SDS011;29527;55.766;37.570;2023-09-30T01:11:53;21.13;;;13.57;;
37791;SDS011;29527;55.766;37.570;2023-09-30T01:14:32;19.73;;;12.80;;
37791;SDS011;29527;55.766;37.570;2023-09-30T01:17:06;19.85;;;12.35;;
37791;SDS011;29527;55.766;37.570;2023-09-30T01:19:34;17.23;;;12.00;;
37791;SDS011;29527;55.766;37.570;2023-09-30T01:22:00;20.35;;;12.50;;
37791;SDS011;29527;55.766;37.570;2023-09-30T01:24:37;17.95;;;13.15;;
37791;SDS011;29527;55.766;37.570;2023-09-30T01:27:08;19.75;;;12.95;;
37791;SDS011;29527;55.766;37.570;2023-09-30T01:29:34;19.38;;;12.43;;
37791;SDS011;29527;55.766;37.570;2023-09-30T01:32:00;22.73;;;12.80;;
37791;SDS011;29527;55.766;37.570;2023-09-30T01:34:26;17.50;;;12.60;;
37791;SDS011;29527;55.766;37.570;2023-09-30T01:36:52;17.98;;;12.32;;
37791;SDS011;29527;55.766;37.570;2023-09-30T01:39:18;20.63;;;12.50;;
37791;SDS011;29527;55.766;37.570;2023-09-30T01:41:44;21.10;;;13.23;;
37791;SDS011;29527;55.766;37.570;2023-09-30T01:44:10;18.42;;;12.55;;
37791;SDS011;29527;55.766;37.570;2023-09-30T01:46:36;23.65;;;12.98;;
37791;SDS011;29527;55.766;37.570;2023-09-30T01:49:02;17.33;;;12.40;;
37791;SDS011;29527;55.766;37.570;2023-09-30T01:51:29;22.92;;;13.88;;
37791;SDS011;29527;55.766;37.570;2023-09-30T01:53:55;20.73;;;13.30;;
37791;SDS011;29527;55.766;37.570;2023-09-30T01:56:20;20.45;;;13.05;;
37791;SDS011;29527;55.766;37.570;2023-09-30T01:58:46;18.85;;;12.63;;
37791;SDS011;29527;55.766;37.570;2023-09-30T02:01:12;18.92;;;12.85;;
37791;SDS011;29527;55.766;37.570;2023-09-30T02:03:37;22.25;;;13.40;;
37791;SDS011;29527;55.766;37.570;2023-09-30T02:06:03;19.48;;;12.95;;
37791;SDS011;29527;55.766;37.570;2023-09-30T02:08:28;20.40;;;13.50;;
37791;SDS011;29527;55.766;37.570;2023-09-30T02:10:54;19.65;;;12.65;;
37791;SDS011;29527;55.766;37.570;2023-09-30T02:13:20;24.83;;;13.65;;
37791;SDS011;29527;55.766;37.570;2023-09-30T02:15:46;18.55;;;12.90;;
37791;SDS011;29527;55.766;37.570;2023-09-30T02:18:12;24.20;;;13.13;;
37791;SDS011;29527;55.766;37.570;2023-09-30T02:20:37;21.40;;;13.95;;
37791;SDS011;29527;55.766;37.570;2023-09-30T02:23:08;23.42;;;12.98;;
37791;SDS011;29527;55.766;37.570;2023-09-30T02:25:36;23.83;;;13.77;;
37791;SDS011;29527;55.766;37.570;2023-09-30T02:28:03;21.15;;;12.98;;
37791;SDS011;29527;55.766;37.570;2023-09-30T02:30:29;19.92;;;12.95;;
37791;SDS011;29527;55.766;37.570;2023-09-30T02:32:56;21.83;;;13.25;;
37791;SDS011;29527;55.766;37.570;2023-09-30T02:35:21;19.65;;;13.25;;
37791;SDS011;29527;55.766;37.570;2023-09-30T02:37:48;19.17;;;13.38;;
37791;SDS011;29527;55.766;37.570;2023-09-30T02:40:15;18.27;;;12.77;;
37791;SDS011;29527;55.766;37.570;2023-09-30T02:42:42;17.88;;;12.98;;
37791;SDS011;29527;55.766;37.570;2023-09-30T02:45:08;21.35;;;13.73;;
37791;SDS011;29527;55.766;37.570;2023-09-30T02:47:35;20.17;;;13.07;;
37791;SDS011;29527;55.766;37.570;2023-09-30T02:50:02;21.02;;;13.18;;
37791;SDS011;29527;55.766;37.570;2023-09-30T02:52:31;21.05;;;13.63;;
37791;SDS011;29527;55.766;37.570;2023-09-30T02:55:00;23.25;;;13.27;;
37791;SDS011;29527;55.766;37.570;2023-09-30T02:57:26;21.30;;;13.68;;
37791;SDS011;29527;55.766;37.570;2023-09-30T02:59:53;21.30;;;13.57;;
37791;SDS011;29527;55.766;37.570;2023-09-30T03:02:19;19.33;;;13.80;;
37791;SDS011;29527;55.766;37.570;2023-09-30T03:04:46;20.98;;;13.85;;
37791;SDS011;29527;55.766;37.570;2023-09-30T03:07:12;18.27;;;12.60;;
37791;SDS011;29527;55.766;37.570;2023-09-30T03:09:38;22.92;;;14.32;;
37791;SDS011;29527;55.766;37.570;2023-09-30T03:12:04;22.42;;;14.45;;
37791;SDS011;29527;55.766;37.570;2023-09-30T03:14:30;27.75;;;18.27;;
37791;SDS011;29527;55.766;37.570;2023-09-30T03:16:57;27.65;;;19.25;;
37791;SDS011;29527;55.766;37.570;2023-09-30T03:19:23;25.40;;;15.77;;
37791;SDS011;29527;55.766;37.570;2023-09-30T03:21:49;23.50;;;14.68;;
37791;SDS011;29527;55.766;37.570;2023-09-30T03:24:15;22.55;;;14.85;;
37791;SDS011;29527;55.766;37.570;2023-09-30T03:26:41;23.27;;;14.75;;
37791;SDS011;29527;55.766;37.570;2023-09-30T03:29:07;19.30;;;14.65;;
37791;SDS011;29527;55.766;37.570;2023-09-30T03:31:34;20.15;;;14.25;;
37791;SDS011;29527;55.766;37.570;2023-09-30T03:34:00;20.33;;;15.10;;
37791;SDS011;29527;55.766;37.570;2023-09-30T03:36:27;25.90;;;14.55;;
37791;SDS011;29527;55.766;37.570;2023-09-30T03:38:53;20.55;;;15.13;;
37791;SDS011;29527;55.766;37.570;2023-09-30T03:41:24;20.63;;;14.80;;
37791;SDS011;29527;55.766;37.570;2023-09-30T03:43:50;23.92;;;13.95;;
37791;SDS011;29527;55.766;37.570;2023-09-30T03:46:16;23.35;;;15.05;;
37791;SDS011;29527;55.766;37.570;2023-09-30T03:48:42;20.10;;;14.90;;
37791;SDS011;29527;55.766;37.570;2023-09-30T03:51:13;24.08;;;14.55;;
37791;SDS011;29527;55.766;37.570;2023-09-30T03:53:43;25.17;;;14.65;;
37791;SDS011;29527;55.766;37.570;2023-09-30T03:56:09;22.48;;;15.50;;
37791;SDS011;29527;55.766;37.570;2023-09-30T03:58:41;19.50;;;14.40;;
37791;SDS011;29527;55.766;37.570;2023-09-30T04:01:08;20.83;;;14.23;;
37791;SDS011;29527;55.766;37.570;2023-09-30T04:03:38;26.60;;;15.15;;
37791;SDS011;29527;55.766;37.570;2023-09-30T04:06:05;22.80;;;15.00;;
37791;SDS011;29527;55.766;37.570;2023-09-30T04:08:32;24.20;;;14.80;;
37791;SDS011;29527;55.766;37.570;2023-09-30T04:11:04;22.65;;;14.98;;
37791;SDS011;29527;55.766;37.570;2023-09-30T04:13:30;25.67;;;14.82;;
37791;SDS011;29527;55.766;37.570;2023-09-30T04:15:55;24.88;;;13.98;;
37791;SDS011;29527;55.766;37.570;2023-09-30T04:18:24;22.27;;;13.88;;
37791;SDS011;29527;55.766;37.570;2023-09-30T04:20:52;21.60;;;13.52;;
37791;SDS011;29527;55.766;37.570;2023-09-30T04:23:18;19.20;;;13.32;;
37791;SDS011;29527;55.766;37.570;2023-09-30T04:25:45;18.67;;;13.57;;
37791;SDS011;29527;55.766;37.570;2023-09-30T04:28:12;21.48;;;13.80;;
37791;SDS011;29527;55.766;37.570;2023-09-30T04:30:39;18.63;;;13.57;;
37791;SDS011;29527;55.766;37.570;2023-09-30T04:33:05;21.73;;;13.45;;
37791;SDS011;29527;55.766;37.570;2023-09-30T04:35:32;18.38;;;13.40;;
37791;SDS011;29527;55.766;37.570;2023-09-30T04:37:57;21.58;;;14.02;;
37791;SDS011;29527;55.766;37.570;2023-09-30T04:40:30;22.73;;;14.60;;
37791;SDS011;29527;55.766;37.570;2023-09-30T04:42:55;24.00;;;13.25;;
37791;SDS011;29527;55.766;37.570;2023-09-30T04:45:24;21.05;;;13.05;;
37791;SDS011;29527;55.766;37.570;2023-09-30T04:47:54;18.55;;;13.57;;
37791;SDS011;29527;55.766;37.570;2023-09-30T04:50:23;21.27;;;13.63;;
37791;SDS011;29527;55.766;37.570;2023-09-30T04:52:50;20.02;;;13.02;;
37791;SDS011;29527;55.766;37.570;2023-09-30T04:55:16;18.92;;;13.20;;
37791;SDS011;29527;55.766;37.570;2023-09-30T04:57:45;21.52;;;13.20;;
37791;SDS011;29527;55.766;37.570;2023-09-30T05:00:16;22.88;;;13.18;;
37791;SDS011;29527;55.766;37.570;2023-09-30T05:02:44;19.33;;;13.00;;
37791;SDS011;29527;55.766;37.570;2023-09-30T05:05:10;21.88;;;12.20;;
37791;SDS011;29527;55.766;37.570;2023-09-30T05:07:36;17.70;;;12.48;;
37791;SDS011;29527;55.766;37.570;2023-09-30T05:10:02;25.58;;;12.32;;
37791;SDS011;29527;55.766;37.570;2023-09-30T05:12:31;19.65;;;11.98;;
37791;SDS011;29527;55.766;37.570;2023-09-30T05:14:58;15.70;;;11.75;;
37791;SDS011;29527;55.766;37.570;2023-09-30T05:17:24;19.13;;;12.18;;
37791;SDS011;29527;55.766;37.570;2023-09-30T05:19:50;16.45;;;11.95;;
37791;SDS011;29527;55.766;37.570;2023-09-30T05:22:15;16.35;;;10.90;;
37791;SDS011;29527;55.766;37.570;2023-09-30T05:24:43;17.02;;;11.20;;
37791;SDS011;29527;55.766;37.570;2023-09-30T05:27:09;19.27;;;11.60;;
37791;SDS011;29527;55.766;37.570;2023-09-30T05:29:34;17.80;;;10.70;;
37791;SDS011;29527;55.766;37.570;2023-09-30T05:32:01;14.80;;;11.13;;
37791;SDS011;29527;55.766;37.570;2023-09-30T05:34:26;10.82;;;9.73;;
37791;SDS011;29527;55.766;37.570;2023-09-30T05:36:53;14.70;;;10.15;;
37791;SDS011;29527;55.766;37.570;2023-09-30T05:39:18;15.52;;;9.93;;
37791;SDS011;29527;55.766;37.570;2023-09-30T05:41:45;14.23;;;9.98;;
37791;SDS011;29527;55.766;37.570;2023-09-30T05:44:12;12.10;;;9.65;;
37791;SDS011;29527;55.766;37.570;2023-09-30T05:46:39;21.17;;;11.25;;
37791;SDS011;29527;55.766;37.570;2023-09-30T05:49:05;18.17;;;10.15;;
37791;SDS011;29527;55.766;37.570;2023-09-30T05:51:36;13.65;;;9.88;;
37791;SDS011;29527;55.766;37.570;2023-09-30T05:54:01;14.00;;;9.73;;
37791;SDS011;29527;55.766;37.570;2023-09-30T05:56:27;13.50;;;9.55;;
37791;SDS011;29527;55.766;37.570;2023-09-30T05:58:52;21.42;;;9.68;;
37791;SDS011;29527;55.766;37.570;2023-09-30T06:01:18;13.00;;;9.52;;
37791;SDS011;29527;55.766;37.570;2023-09-30T06:03:45;14.65;;;9.65;;
37791;SDS011;29527;55.766;37.570;2023-09-30T06:06:12;10.95;;;9.05;;
37791;SDS011;29527;55.766;37.570;2023-09-30T06:08:39;17.98;;;9.80;;
37791;SDS011;29527;55.766;37.570;2023-09-30T06:11:05;15.27;;;9.52;;
37791;SDS011;29527;55.766;37.570;2023-09-30T06:13:32;19.35;;;10.55;;
37791;SDS011;29527;55.766;37.570;2023-09-30T06:15:58;14.60;;;9.38;;
37791;SDS011;29527;55.766;37.570;2023-09-30T06:18:23;15.85;;;10.45;;
37791;SDS011;29527;55.766;37.570;2023-09-30T06:20:49;19.60;;;9.77;;
37791;SDS011;29527;55.766;37.570;2023-09-30T06:23:16;12.23;;;8.93;;
37791;SDS011;29527;55.766;37.570;2023-09-30T06:25:42;20.55;;;9.20;;
37791;SDS011;29527;55.766;37.570;2023-09-30T06:28:08;13.30;;;9.82;;
37791;SDS011;29527;55.766;37.570;2023-09-30T06:30:34;12.52;;;9.57;;
37791;SDS011;29527;55.766;37.570;2023-09-30T06:33:00;17.00;;;9.98;;
37791;SDS011;29527;55.766;37.570;2023-09-30T06:35:26;17.33;;;8.77;;
37791;SDS011;29527;55.766;37.570;2023-09-30T06:37:55;14.50;;;9.50;;
37791;SDS011;29527;55.766;37.570;2023-09-30T06:40:20;16.70;;;9.35;;
37791;SDS011;29527;55.766;37.570;2023-09-30T06:42:47;12.38;;;9.63;;
37791;SDS011;29527;55.766;37.570;2023-09-30T06:45:12;21.73;;;9.50;;
37791;SDS011;29527;55.766;37.570;2023-09-30T06:47:39;17.65;;;8.52;;
37791;SDS011;29527;55.766;37.570;2023-09-30T06:50:10;12.93;;;9.75;;
37791;SDS011;29527;55.766;37.570;2023-09-30T06:52:38;11.77;;;9.30;;
37791;SDS011;29527;55.766;37.570;2023-09-30T06:55:06;20.17;;;9.48;;
37791;SDS011;29527;55.766;37.570;2023-09-30T06:57:37;15.88;;;9.10;;
37791;SDS011;29527;55.766;37.570;2023-09-30T07:00:06;14.55;;;9.38;;
37791;SDS011;29527;55.766;37.570;2023-09-30T07:02:37;12.60;;;9.48;;
37791;SDS011;29527;55.766;37.570;2023-09-30T07:05:13;17.85;;;9.65;;
37791;SDS011;29527;55.766;37.570;2023-09-30T07:07:40;17.02;;;9.15;;
37791;SDS011;29527;55.766;37.570;2023-09-30T07:10:08;16.25;;;9.73;;
37791;SDS011;29527;55.766;37.570;2023-09-30T07:12:34;16.85;;;9.73;;
37791;SDS011;29527;55.766;37.570;2023-09-30T07:15:01;17.65;;;9.88;;
37791;SDS011;29527;55.766;37.570;2023-09-30T07:17:32;16.02;;;9.43;;
37791;SDS011;29527;55.766;37.570;2023-09-30T07:19:59;21.25;;;9.52;;
37791;SDS011;29527;55.766;37.570;2023-09-30T07:22:25;19.35;;;9.93;;
37791;SDS011;29527;55.766;37.570;2023-09-30T07:24:51;19.52;;;9.38;;
37791;SDS011;29527;55.766;37.570;2023-09-30T07:27:17;10.73;;;9.20;;
37791;SDS011;29527;55.766;37.570;2023-09-30T07:29:43;13.27;;;8.60;;
37791;SDS011;29527;55.766;37.570;2023-09-30T07:32:09;17.20;;;8.13;;
37791;SDS011;29527;55.766;37.570;2023-09-30T07:34:34;14.20;;;8.32;;
37791;SDS011;29527;55.766;37.570;2023-09-30T07:37:00;13.05;;;8.75;;
37791;SDS011;29527;55.766;37.570;2023-09-30T07:39:26;11.70;;;8.48;;
37791;SDS011;29527;55.766;37.570;2023-09-30T07:41:52;14.82;;;8.05;;
37791;SDS011;29527;55.766;37.570;2023-09-30T07:44:17;14.90;;;8.25;;
37791;SDS011;29527;55.766;37.570;2023-09-30T07:46:43;12.07;;;7.78;;
37791;SDS011;29527;55.766;37.570;2023-09-30T07:49:09;13.85;;;7.65;;
37791;SDS011;29527;55.766;37.570;2023-09-30T07:51:36;18.98;;;8.20;;
37791;SDS011;29527;55.766;37.570;2023-09-30T07:54:03;12.85;;;8.80;;
37791;SDS011;29527;55.766;37.570;2023-09-30T07:56:29;13.48;;;8.88;;
37791;SDS011;29527;55.766;37.570;2023-09-30T07:58:54;19.98;;;8.57;;
37791;SDS011;29527;55.766;37.570;2023-09-30T08:01:20;14.32;;;8.98;;
37791;SDS011;29527;55.766;37.570;2023-09-30T08:03:46;20.83;;;9.02;;
37791;SDS011;29527;55.766;37.570;2023-09-30T08:06:12;13.80;;;9.40;;
37791;SDS011;29527;55.766;37.570;2023-09-30T08:08:38;13.32;;;9.13;;
37791;SDS011;29527;55.766;37.570;2023-09-30T08:11:03;14.88;;;9.32;;
37791;SDS011;29527;55.766;37.570;2023-09-30T08:13:30;17.42;;;9.18;;
37791;SDS011;29527;55.766;37.570;2023-09-30T08:15:57;18.38;;;10.25;;
37791;SDS011;29527;55.766;37.570;2023-09-30T08:18:23;18.40;;;9.55;;
37791;SDS011;29527;55.766;37.570;2023-09-30T08:20:48;20.90;;;9.90;;
37791;SDS011;29527;55.766;37.570;2023-09-30T08:23:14;16.73;;;10.20;;
37791;SDS011;29527;55.766;37.570;2023-09-30T08:25:40;16.13;;;9.65;;
37791;SDS011;29527;55.766;37.570;2023-09-30T08:28:05;13.65;;;9.70;;
37791;SDS011;29527;55.766;37.570;2023-09-30T08:30:35;18.73;;;9.13;;
37791;SDS011;29527;55.766;37.570;2023-09-30T08:33:02;21.40;;;8.65;;
37791;SDS011;29527;55.766;37.570;2023-09-30T08:35:38;15.10;;;9.07;;
37791;SDS011;29527;55.766;37.570;2023-09-30T08:38:04;17.15;;;8.98;;
37791;SDS011;29527;55.766;37.570;2023-09-30T08:40:30;19.35;;;9.63;;
37791;SDS011;29527;55.766;37.570;2023-09-30T08:42:56;14.98;;;9.45;;
37791;SDS011;29527;55.766;37.570;2023-09-30T08:45:22;20.35;;;9.43;;
37791;SDS011;29527;55.766;37.570;2023-09-30T08:47:48;14.52;;;8.95;;
37791;SDS011;29527;55.766;37.570;2023-09-30T08:50:16;16.05;;;8.75;;
37791;SDS011;29527;55.766;37.570;2023-09-30T08:52:42;15.68;;;8.60;;
37791;SDS011;29527;55.766;37.570;2023-09-30T08:55:10;14.73;;;9.38;;
37791;SDS011;29527;55.766;37.570;2023-09-30T08:57:37;13.00;;;8.90;;
37791;SDS011;29527;55.766;37.570;2023-09-30T09:00:05;16.20;;;8.60;;
37791;SDS011;29527;55.766;37.570;2023-09-30T09:02:35;15.13;;;8.48;;
37791;SDS011;29527;55.766;37.570;2023-09-30T09:05:01;15.98;;;8.77;;
37791;SDS011;29527;55.766;37.570;2023-09-30T09:07:31;13.75;;;8.50;;
37791;SDS011;29527;55.766;37.570;2023-09-30T09:10:06;17.95;;;9.57;;
37791;SDS011;29527;55.766;37.570;2023-09-30T09:12:34;21.58;;;9.27;;
37791;SDS011;29527;55.766;37.570;2023-09-30T09:15:02;16.38;;;8.80;;
37791;SDS011;29527;55.766;37.570;2023-09-30T09:17:39;17.30;;;9.23;;
37791;SDS011;29527;55.766;37.570;2023-09-30T09:20:07;16.25;;;8.82;;
37791;SDS011;29527;55.766;37.570;2023-09-30T09:22:41;17.67;;;8.93;;
37791;SDS011;29527;55.766;37.570;2023-09-30T09:25:08;12.10;;;8.68;;
37791;SDS011;29527;55.766;37.570;2023-09-30T09:27:34;15.63;;;9.02;;
37791;SDS011;29527;55.766;37.570;2023-09-30T09:35:36;12.57;;;8.48;;
37791;SDS011;29527;55.766;37.570;2023-09-30T09:38:07;15.13;;;8.23;;
37791;SDS011;29527;55.766;37.570;2023-09-30T09:40:34;13.57;;;9.00;;
37791;SDS011;29527;55.766;37.570;2023-09-30T09:43:01;14.18;;;8.68;;
37791;SDS011;29527;55.766;37.570;2023-09-30T09:45:30;16.92;;;8.75;;
37791;SDS011;29527;55.766;37.570;2023-09-30T09:47:58;13.10;;;9.20;;
37791;SDS011;29527;55.766;37.570;2023-09-30T09:50:24;12.93;;;9.25;;
37791;SDS011;29527;55.766;37.570;2023-09-30T09:52:52;16.30;;;9.32;;
37791;SDS011;29527;55.766;37.570;2023-09-30T09:55:21;17.58;;;9.50;;
37791;SDS011;29527;55.766;37.570;2023-09-30T09:57:49;13.15;;;9.00;;
37791;SDS011;29527;55.766;37.570;2023-09-30T10:00:15;13.50;;;8.18;;
37791;SDS011;29527;55.766;37.570;2023-09-30T10:02:46;10.10;;;8.57;;
37791;SDS011;29527;55.766;37.570;2023-09-30T10:05:13;15.80;;;7.90;;
37791;SDS011;29527;55.766;37.570;2023-09-30T10:07:44;17.25;;;9.85;;
37791;SDS011;29527;55.766;37.570;2023-09-30T10:10:16;15.98;;;9.35;;
37791;SDS011;29527;55.766;37.570;2023-09-30T10:12:44;12.75;;;8.65;;
37791;SDS011;29527;55.766;37.570;2023-09-30T10:17:56;15.30;;;8.77;;
37791;SDS011;29527;55.766;37.570;2023-09-30T10:20:28;13.35;;;9.23;;
37791;SDS011;29527;55.766;37.570;2023-09-30T10:25:43;11.15;;;8.30;;
37791;SDS011;29527;55.766;37.570;2023-09-30T10:31:20;12.23;;;8.48;;
37791;SDS011;29527;55.766;37.570;2023-09-30T10:36:31;13.38;;;8.80;;
37791;SDS011;29527;55.766;37.570;2023-09-30T10:38:58;11.23;;;8.93;;
37791;SDS011;29527;55.766;37.570;2023-09-30T10:46:51;12.35;;;9.95;;
37791;SDS011;29527;55.766;37.570;2023-09-30T10:51:50;13.43;;;8.95;;
37791;SDS011;29527;55.766;37.570;2023-09-30T10:54:24;16.83;;;9.13;;
37791;SDS011;29527;55.766;37.570;2023-09-30T10:56:51;17.10;;;9.35;;
37791;SDS011;29527;55.766;37.570;2023-09-30T10:59:24;9.98;;;8.98;;
37791;SDS011;29527;55.766;37.570;2023-09-30T11:01:50;16.02;;;9.35;;
37791;SDS011;29527;55.766;37.570;2023-09-30T11:04:17;12.85;;;9.10;;
37791;SDS011;29527;55.766;37.570;2023-09-30T11:06:44;13.15;;;9.75;;
37791;SDS011;29527;55.766;37.570;2023-09-30T11:09:14;14.95;;;8.93;;
37791;SDS011;29527;55.766;37.570;2023-09-30T11:11:49;10.45;;;9.07;;
37791;SDS011;29527;55.766;37.570;2023-09-30T11:16:45;17.83;;;9.45;;
37791;SDS011;29527;55.766;37.570;2023-09-30T11:19:12;15.45;;;9.07;;
37791;SDS011;29527;55.766;37.570;2023-09-30T11:21:38;15.18;;;9.60;;
37791;SDS011;29527;55.766;37.570;2023-09-30T11:24:05;12.98;;;9.23;;
37791;SDS011;29527;55.766;37.570;2023-09-30T11:26:32;14.43;;;8.70;;
37791;SDS011;29527;55.766;37.570;2023-09-30T11:31:53;13.63;;;9.05;;
37791;SDS011;29527;55.766;37.570;2023-09-30T11:34:19;15.23;;;9.27;;
37791;SDS011;29527;55.766;37.570;2023-09-30T11:36:53;15.25;;;8.73;;
37791;SDS011;29527;55.766;37.570;2023-09-30T11:39:26;10.48;;;8.57;;
37791;SDS011;29527;55.766;37.570;2023-09-30T11:41:54;15.77;;;9.63;;
37791;SDS011;29527;55.766;37.570;2023-09-30T11:44:23;12.02;;;9.18;;
37791;SDS011;29527;55.766;37.570;2023-09-30T11:46:58;11.52;;;9.25;;
37791;SDS011;29527;55.766;37.570;2023-09-30T11:49:33;15.82;;;8.73;;
37791;SDS011;29527;55.766;37.570;2023-09-30T11:52:09;13.70;;;9.20;;
37791;SDS011;29527;55.766;37.570;2023-09-30T11:54:38;13.02;;;8.90;;
37791;SDS011;29527;55.766;37.570;2023-09-30T11:57:06;15.10;;;9.52;;
37791;SDS011;29527;55.766;37.570;2023-09-30T11:59:35;15.25;;;9.50;;
37791;SDS011;29527;55.766;37.570;2023-09-30T12:02:01;14.35;;;9.25;;
37791;SDS011;29527;55.766;37.570;2023-09-30T12:04:28;15.43;;;8.82;;
37791;SDS011;29527;55.766;37.570;2023-09-30T12:06:55;16.15;;;8.80;;
37791;SDS011;29527;55.766;37.570;2023-09-30T12:09:20;13.35;;;9.38;;
37791;SDS011;29527;55.766;37.570;2023-09-30T12:11:51;14.68;;;8.02;;
37791;SDS011;29527;55.766;37.570;2023-09-30T12:14:17;13.55;;;8.40;;
37791;SDS011;29527;55.766;37.570;2023-09-30T12:16:43;14.13;;;8.52;;
37791;SDS011;29527;55.766;37.570;2023-09-30T12:19:12;14.52;;;8.45;;
37791;SDS011;29527;55.766;37.570;2023-09-30T12:21:44;13.50;;;8.20;;
37791;SDS011;29527;55.766;37.570;2023-09-30T12:24:13;15.10;;;8.27;;
37791;SDS011;29527;55.766;37.570;2023-09-30T12:26:48;13.02;;;8.38;;
37791;SDS011;29527;55.766;37.570;2023-09-30T12:29:15;14.38;;;8.82;;
37791;SDS011;29527;55.766;37.570;2023-09-30T12:31:46;9.98;;;8.27;;
37791;SDS011;29527;55.766;37.570;2023-09-30T12:34:17;15.25;;;7.97;;
37791;SDS011;29527;55.766;37.570;2023-09-30T12:36:43;15.43;;;8.27;;
37791;SDS011;29527;55.766;37.570;2023-09-30T12:39:09;12.13;;;8.40;;
37791;SDS011;29527;55.766;37.570;2023-09-30T12:41:37;13.30;;;8.85;;
37791;SDS011;29527;55.766;37.570;2023-09-30T12:44:03;17.23;;;8.88;;
37791;SDS011;29527;55.766;37.570;2023-09-30T12:46:29;16.08;;;8.88;;
37791;SDS011;29527;55.766;37.570;2023-09-30T12:48:54;13.88;;;8.75;;
37791;SDS011;29527;55.766;37.570;2023-09-30T12:51:20;12.00;;;8.70;;
37791;SDS011;29527;55.766;37.570;2023-09-30T12:53:45;13.48;;;8.40;;
37791;SDS011;29527;55.766;37.570;2023-09-30T12:56:11;15.30;;;8.98;;
37791;SDS011;29527;55.766;37.570;2023-09-30T12:58:36;15.50;;;9.00;;
37791;SDS011;29527;55.766;37.570;2023-09-30T13:01:03;12.95;;;9.57;;
37791;SDS011;29527;55.766;37.570;2023-09-30T13:03:29;16.20;;;8.65;;
37791;SDS011;29527;55.766;37.570;2023-09-30T13:05:54;14.88;;;8.93;;
37791;SDS011;29527;55.766;37.570;2023-09-30T13:08:20;13.98;;;8.98;;
37791;SDS011;29527;55.766;37.570;2023-09-30T13:10:45;17.83;;;9.63;;
37791;SDS011;29527;55.766;37.570;2023-09-30T13:13:12;10.45;;;8.05;;
37791;SDS011;29527;55.766;37.570;2023-09-30T13:15:38;14.95;;;8.30;;
37791;SDS011;29527;55.766;37.570;2023-09-30T13:18:04;19.55;;;9.43;;
37791;SDS011;29527;55.766;37.570;2023-09-30T13:20:31;12.73;;;8.85;;
37791;SDS011;29527;55.766;37.570;2023-09-30T13:22:56;15.05;;;9.18;;
37791;SDS011;29527;55.766;37.570;2023-09-30T13:25:22;17.60;;;9.75;;
37791;SDS011;29527;55.766;37.570;2023-09-30T13:27:48;19.25;;;9.50;;
37791;SDS011;29527;55.766;37.570;2023-09-30T13:30:13;13.23;;;8.85;;
37791;SDS011;29527;55.766;37.570;2023-09-30T13:32:39;15.70;;;9.95;;
37791;SDS011;29527;55.766;37.570;2023-09-30T13:35:05;15.43;;;9.52;;
37791;SDS011;29527;55.766;37.570;2023-09-30T13:37:31;11.07;;;9.30;;
37791;SDS011;29527;55.766;37.570;2023-09-30T13:40:04;14.05;;;8.93;;
37791;SDS011;29527;55.766;37.570;2023-09-30T13:42:33;17.35;;;9.40;;
37791;SDS011;29527;55.766;37.570;2023-09-30T13:44:59;19.30;;;9.38;;
37791;SDS011;29527;55.766;37.570;2023-09-30T13:47:25;16.08;;;9.02;;
37791;SDS011;29527;55.766;37.570;2023-09-30T13:49:51;16.95;;;9.45;;
37791;SDS011;29527;55.766;37.570;2023-09-30T13:52:17;15.88;;;9.02;;
37791;SDS011;29527;55.766;37.570;2023-09-30T13:54:43;16.77;;;9.40;;
37791;SDS011;29527;55.766;37.570;2023-09-30T13:57:08;18.23;;;9.30;;
37791;SDS011;29527;55.766;37.570;2023-09-30T13:59:34;18.88;;;10.38;;
37791;SDS011;29527;55.766;37.570;2023-09-30T14:02:01;17.25;;;9.43;;
37791;SDS011;29527;55.766;37.570;2023-09-30T14:04:29;29.17;;;10.48;;
37791;SDS011;29527;55.766;37.570;2023-09-30T14:06:57;37.13;;;12.68;;
37791;SDS011;29527;55.766;37.570;2023-09-30T14:09:26;19.63;;;10.07;;
37791;SDS011;29527;55.766;37.570;2023-09-30T14:11:53;16.60;;;10.27;;
37791;SDS011;29527;55.766;37.570;2023-09-30T14:14:18;17.58;;;9.50;;
37791;SDS011;29527;55.766;37.570;2023-09-30T14:16:44;17.83;;;9.50;;
37791;SDS011;29527;55.766;37.570;2023-09-30T14:19:09;13.82;;;10.25;;
37791;SDS011;29527;55.766;37.570;2023-09-30T14:21:35;22.30;;;9.82;;
37791;SDS011;29527;55.766;37.570;2023-09-30T14:24:00;12.52;;;9.65;;
37791;SDS011;29527;55.766;37.570;2023-09-30T14:26:27;17.92;;;10.43;;
37791;SDS011;29527;55.766;37.570;2023-09-30T14:28:53;17.27;;;9.68;;
37791;SDS011;29527;55.766;37.570;2023-09-30T14:31:19;16.05;;;10.10;;
37791;SDS011;29527;55.766;37.570;2023-09-30T14:33:45;16.75;;;10.23;;
37791;SDS011;29527;55.766;37.570;2023-09-30T14:36:10;17.40;;;10.13;;
37791;SDS011;29527;55.766;37.570;2023-09-30T14:38:36;16.48;;;10.18;;
37791;SDS011;29527;55.766;37.570;2023-09-30T14:41:11;22.25;;;10.30;;
37791;SDS011;29527;55.766;37.570;2023-09-30T14:43:37;19.30;;;11.25;;
37791;SDS011;29527;55.766;37.570;2023-09-30T14:46:04;15.45;;;9.65;;